createdAt,value
2023-03-15T00:04:25.076Z,67.00
2023-03-15T00:09:28.213Z,68.00
2023-03-15T00:14:31.736Z,67.10
2023-03-15T00:19:34.026Z,67.20
2023-03-15T00:24:36.277Z,67.00
2023-03-15T00:29:38.465Z,67.10
2023-03-15T00:34:40.747Z,67.90
2023-03-15T00:39:45.564Z,67.80
2023-03-15T00:44:47.812Z,67.50
2023-03-15T00:49:50.878Z,67.70
2023-03-15T00:54:54.429Z,67.70
2023-03-15T00:59:57.559Z,67.70
2023-03-15T01:05:00.229Z,67.70
2023-03-15T01:10:05.124Z,68.40
2023-03-15T01:15:16.828Z,69.10
2023-03-15T01:20:19.523Z,68.50
2023-03-15T01:25:21.755Z,67.40
2023-03-15T01:30:23.960Z,68.10
2023-03-15T01:35:26.314Z,67.70
2023-03-15T01:40:28.847Z,69.00
2023-03-15T01:51:19.696Z,68.40
2023-03-15T01:56:24.007Z,67.20
2023-03-15T02:01:26.982Z,66.90
2023-03-15T02:06:34.969Z,67.30
2023-03-15T02:11:37.411Z,66.80
2023-03-15T02:16:40.210Z,67.00
2023-03-15T02:26:57.330Z,67.60
2023-03-15T02:32:04.657Z,68.20
2023-03-15T02:37:07.033Z,68.80
2023-03-15T02:42:09.579Z,68.80
2023-03-15T02:47:19.004Z,69.00
2023-03-15T02:52:22.639Z,69.20
2023-03-15T02:57:24.952Z,69.70
2023-03-15T03:02:30.022Z,70.80
2023-03-15T03:07:33.537Z,71.70
2023-03-15T03:12:39.909Z,71.70
2023-03-15T03:17:43.938Z,71.20
2023-03-15T03:22:46.242Z,70.70
2023-03-15T03:27:48.763Z,70.40
2023-03-15T03:32:51.744Z,70.70
2023-03-15T03:37:55.882Z,71.10
2023-03-15T03:43:04.023Z,70.90
2023-03-15T03:48:06.691Z,70.70
2023-03-15T03:53:10.366Z,71.00
2023-03-15T03:58:12.915Z,71.40
2023-03-15T04:03:27.216Z,71.10
2023-03-15T04:08:37.065Z,72.00
2023-03-15T04:13:39.670Z,71.40
2023-03-15T04:18:42.321Z,71.10
2023-03-15T04:23:44.892Z,71.00
2023-03-15T04:28:59.178Z,70.80
2023-03-15T04:34:13.492Z,70.10
2023-03-15T04:39:35.700Z,70.40
2023-03-15T04:44:49.852Z,70.70
2023-03-15T04:50:13.435Z,70.10
2023-03-15T04:55:25.149Z,70.50
2023-03-15T05:00:47.530Z,70.20
2023-03-15T05:06:09.747Z,70.40
2023-03-15T05:11:24.993Z,70.30
2023-03-15T05:16:36.758Z,71.00
2023-03-15T05:21:54.773Z,71.10
2023-03-15T05:27:13.716Z,71.00
2023-03-15T05:32:34.835Z,70.50
2023-03-15T05:37:51.471Z,70.20
2023-03-15T05:43:09.241Z,69.80
2023-03-15T05:48:32.462Z,70.20
2023-03-15T05:53:54.974Z,71.10
2023-03-15T05:59:17.139Z,69.70
2023-03-15T06:04:33.432Z,69.60
2023-03-15T06:09:36.811Z,70.00
2023-03-15T06:14:39.904Z,70.70
2023-03-15T06:19:43.907Z,70.60
2023-03-15T06:24:46.432Z,69.60
2023-03-15T06:29:50.536Z,69.00
2023-03-15T06:34:55.654Z,70.00
2023-03-15T06:39:57.995Z,69.60
2023-03-15T06:45:03.570Z,69.10
2023-03-15T06:50:06.772Z,69.70
2023-03-15T06:55:10.304Z,68.70
2023-03-15T07:00:14.804Z,68.80
2023-03-15T07:05:17.176Z,68.70
2023-03-15T07:10:20.283Z,67.80
2023-03-15T07:15:22.586Z,66.60
2023-03-15T07:20:24.855Z,66.70
2023-03-15T07:25:27.203Z,67.60
2023-03-15T07:30:29.729Z,67.80
2023-03-15T07:35:32.233Z,68.20
2023-03-15T07:40:34.457Z,68.70
2023-03-15T07:45:36.968Z,67.40
2023-03-15T07:50:39.826Z,69.00
2023-03-15T07:55:42.105Z,67.80
2023-03-15T08:00:44.387Z,67.40
2023-03-15T08:05:46.686Z,67.90
2023-03-15T08:10:49.066Z,68.80
2023-03-15T08:15:52.038Z,69.20
2023-03-15T08:20:54.417Z,67.30
2023-03-15T08:25:57.443Z,67.90
2023-03-15T08:30:59.679Z,66.20
2023-03-15T08:36:02.140Z,68.10
2023-03-15T08:41:04.536Z,69.70
2023-03-15T08:46:06.899Z,65.90
2023-03-15T08:51:09.907Z,64.00
2023-03-15T08:56:12.216Z,65.30
2023-03-15T09:01:16.392Z,67.00
2023-03-15T09:06:18.648Z,66.50
2023-03-15T09:11:22.061Z,68.00
2023-03-15T09:16:24.375Z,69.20
2023-03-15T09:21:27.775Z,69.20
2023-03-15T09:26:30.043Z,69.70
2023-03-15T09:31:32.496Z,68.60
2023-03-15T09:36:34.738Z,69.80
2023-03-15T09:41:58.958Z,69.00
2023-03-15T09:52:36.910Z,69.30
2023-03-15T10:03:00.742Z,70.30
2023-03-15T10:08:03.641Z,70.00
2023-03-15T10:13:22.258Z,70.70
2023-03-15T10:18:51.997Z,70.90
2023-03-15T10:23:55.203Z,71.10
2023-03-15T10:28:58.072Z,71.50
2023-03-15T10:34:00.743Z,71.30
2023-03-15T10:39:05.301Z,72.40
2023-03-15T10:44:14.047Z,72.20
2023-03-15T10:49:16.623Z,72.40
2023-03-15T10:54:22.979Z,73.20
2023-03-15T10:59:27.525Z,72.80
2023-03-15T11:04:33.789Z,72.80
2023-03-15T11:09:52.207Z,74.20
2023-03-15T11:15:00.835Z,74.40
2023-03-15T11:20:26.127Z,73.70
2023-03-15T11:25:31.859Z,73.60
2023-03-15T11:30:34.420Z,73.90
2023-03-15T11:35:48.318Z,74.10
2023-03-15T11:40:56.845Z,74.50
2023-03-15T11:46:05.123Z,74.90
2023-03-15T11:51:16.224Z,74.60
2023-03-15T12:01:31.439Z,74.80
2023-03-15T12:06:37.716Z,74.90
2023-03-15T12:11:41.987Z,75.10
2023-03-15T12:16:46.764Z,76.10
2023-03-15T12:21:56.851Z,76.80
2023-03-15T12:27:20.504Z,76.20
2023-03-15T12:32:23.212Z,76.10
2023-03-15T12:37:48.209Z,75.90
2023-03-15T12:58:36.784Z,77.00
2023-03-15T13:03:39.278Z,77.50
2023-03-15T13:19:23.224Z,78.60
2023-03-15T13:24:39.597Z,78.40
2023-03-15T13:29:41.987Z,79.60
2023-03-15T13:34:47.093Z,80.00
2023-03-15T13:50:19.705Z,80.00
2023-03-15T13:55:23.341Z,80.50
2023-03-15T14:00:27.020Z,80.50
2023-03-15T14:05:33.135Z,80.20
2023-03-15T14:10:38.855Z,79.80
2023-03-15T14:15:44.384Z,79.70
2023-03-15T14:20:53.691Z,80.20
2023-03-15T14:26:03.430Z,80.60
2023-03-15T14:31:06.363Z,80.60
2023-03-15T14:36:23.750Z,81.50
2023-03-15T14:46:37.676Z,81.00
2023-03-15T14:51:40.014Z,81.60
